PTY weather

Tocumen International Airport
Tocumen, Panamá Province, Panama

Public forecast

Using degrees Celsius for public forecast. Weather courtesy of forecast.io.

METAR (pilot weather report)

Retrieved 2019/04/21 07:00 UTC (56 minutes ago):

MPTO 210700Z VRB02KT 9999 SCT018 25/23 Q1012 NOSIG

TAF (pilot weather forecast)

Retrieved 2019/04/21 06:10 UTC (2 hours ago):

TAF MPTO 210400Z 2106/2212 29006KT 9999 SCT018 TEMPO 2108/2112 VRB02KT PROB30 TEMPO 2118/2122 19011KT 6000 TSRA SCT016CB SCT090